Time;durP1;ratioP1;P1;durP2;ratioP2;P2;SDS_P1;SDS_P2;PMS_P1;PMS_P2;Temp;Humidity;BMP_temperature;BMP_pressure;BME280_temperature;BME280_humidity;BME280_pressure;Samples;Min_cycle;Max_cycle;Signal;HPM_P1;HPM_P2
2021/05/01 00:01:27;;;;;;;20.83;17.50;;;5.80;99.90;;;;;;5021601;28;20313;-73
2021/05/01 00:03:53;;;;;;;23.10;16.93;;;5.80;99.90;;;;;;5011793;28;20293;-73
2021/05/01 00:06:20;;;;;;;20.10;17.10;;;5.70;99.90;;;;;;5026222;28;20671;-73
2021/05/01 00:08:46;;;;;;;22.27;17.17;;;5.60;99.90;;;;;;5013439;28;20299;-73
2021/05/01 00:11:13;;;;;;;20.00;17.43;;;5.50;99.90;;;;;;5011097;28;20780;-73
2021/05/01 00:13:39;;;;;;;23.20;17.90;;;5.50;99.90;;;;;;5011691;28;20225;-73
2021/05/01 00:16:07;;;;;;;25.53;19.00;;;5.50;99.90;;;;;;5011629;28;20296;-73
2021/05/01 00:18:34;;;;;;;24.53;20.10;;;5.40;99.90;;;;;;5011389;28;20237;-73
2021/05/01 00:21:00;;;;;;;24.23;19.63;;;5.30;99.90;;;;;;5021672;28;20306;-73
2021/05/01 00:23:27;;;;;;;25.57;19.23;;;5.30;99.90;;;;;;5029488;28;20203;-73
2021/05/01 00:25:53;;;;;;;23.23;19.07;;;5.30;99.90;;;;;;5031183;28;20240;-73
2021/05/01 00:28:19;;;;;;;23.70;19.03;;;5.30;99.90;;;;;;5031028;28;20203;-73
2021/05/01 00:30:46;;;;;;;22.60;18.97;;;5.30;99.90;;;;;;5031478;28;20288;-73
2021/05/01 00:33:13;;;;;;;22.20;18.43;;;5.20;99.90;;;;;;5031315;28;20232;-73
2021/05/01 00:35:40;;;;;;;24.27;18.57;;;5.20;99.90;;;;;;5031424;28;20599;-73
2021/05/01 00:38:07;;;;;;;24.20;18.30;;;5.20;99.90;;;;;;5020288;28;20271;-73
2021/05/01 00:40:33;;;;;;;24.93;19.30;;;5.10;99.90;;;;;;5011194;28;20606;-73
2021/05/01 00:42:59;;;;;;;26.57;20.33;;;5.10;99.90;;;;;;5013833;28;20752;-73
2021/05/01 00:45:26;;;;;;;23.63;19.83;;;5.20;99.90;;;;;;5030424;28;20210;-73
2021/05/01 00:47:52;;;;;;;26.00;19.30;;;5.20;99.90;;;;;;5030870;28;20228;-73
2021/05/01 00:50:20;;;;;;;24.80;20.10;;;5.10;99.90;;;;;;5030723;28;20275;-73
2021/05/01 00:52:46;;;;;;;26.37;20.73;;;5.10;99.90;;;;;;5025558;28;20296;-72
2021/05/01 00:55:13;;;;;;;26.30;20.43;;;5.00;99.90;;;;;;5017799;28;20231;-72
2021/05/01 00:57:41;;;;;;;26.30;20.53;;;5.00;99.90;;;;;;5015463;28;20237;-71
2021/05/01 01:00:20;;;;;;;28.50;20.87;;;4.90;99.90;;;;;;5029956;28;20311;-72
2021/05/01 01:02:47;;;;;;;27.13;20.47;;;4.80;99.90;;;;;;5030370;28;20250;-71
2021/05/01 01:05:13;;;;;;;25.10;20.77;;;4.80;99.90;;;;;;5026622;28;20641;-71
2021/05/01 01:07:41;;;;;;;27.40;20.73;;;4.70;99.90;;;;;;5010565;28;20288;-72
2021/05/01 01:10:07;;;;;;;28.00;21.43;;;4.60;99.90;;;;;;5010850;28;20352;-72
2021/05/01 01:12:34;;;;;;;26.67;21.37;;;4.70;99.90;;;;;;5010212;28;20304;-72
2021/05/01 01:15:00;;;;;;;29.87;21.90;;;4.60;99.90;;;;;;5010799;28;20733;-72
2021/05/01 01:17:27;;;;;;;27.83;21.47;;;4.60;99.90;;;;;;5026732;28;21018;-72
2021/05/01 01:19:53;;;;;;;28.37;21.40;;;4.60;99.90;;;;;;5018428;28;20292;-72
2021/05/01 01:22:21;;;;;;;28.73;21.40;;;4.50;99.90;;;;;;5010787;28;20297;-72
2021/05/01 01:24:47;;;;;;;27.47;21.30;;;4.40;99.90;;;;;;5015745;28;20259;-72
2021/05/01 01:27:13;;;;;;;28.80;21.40;;;4.40;99.90;;;;;;5031324;28;20645;-71
2021/05/01 01:29:42;;;;;;;32.00;22.53;;;4.40;99.90;;;;;;5014282;28;20295;-71
2021/05/01 01:32:10;;;;;;;32.07;22.63;;;4.40;99.90;;;;;;5014610;28;20293;-72
2021/05/01 01:34:40;;;;;;;28.60;22.13;;;4.30;99.90;;;;;;4996851;28;20291;-72
2021/05/01 01:37:07;;;;;;;28.93;22.53;;;4.20;99.90;;;;;;5014554;28;20294;-72
2021/05/01 01:39:34;;;;;;;33.43;22.23;;;4.20;99.90;;;;;;5022043;28;20350;-71
2021/05/01 01:42:00;;;;;;;30.67;21.73;;;4.10;99.90;;;;;;5033792;28;20314;-72
2021/05/01 01:44:27;;;;;;;28.67;21.40;;;4.00;99.90;;;;;;5023019;28;20299;-72
2021/05/01 01:46:53;;;;;;;27.70;21.40;;;4.00;99.90;;;;;;5014249;28;20287;-72
2021/05/01 01:49:19;;;;;;;32.37;23.03;;;4.00;99.90;;;;;;5014155;28;20303;-71
2021/05/01 01:51:46;;;;;;;28.27;22.37;;;4.00;99.90;;;;;;5013753;28;20209;-72
2021/05/01 01:54:12;;;;;;;28.83;22.17;;;4.00;99.90;;;;;;5013461;28;20735;-71
2021/05/01 01:56:39;;;;;;;29.80;22.93;;;3.90;99.90;;;;;;5013633;28;20648;-71
2021/05/01 01:59:06;;;;;;;29.10;22.90;;;3.80;99.90;;;;;;5005755;28;20714;-71
2021/05/01 02:01:33;;;;;;;31.17;22.63;;;3.80;99.90;;;;;;4996317;28;20782;-71
2021/05/01 02:04:00;;;;;;;28.90;22.13;;;3.80;99.90;;;;;;4993794;28;20307;-72
2021/05/01 02:06:26;;;;;;;31.80;22.43;;;3.80;99.90;;;;;;4994108;28;20259;-71
2021/05/01 02:08:53;;;;;;;29.70;22.80;;;3.70;99.90;;;;;;4993903;28;20224;-71
2021/05/01 02:11:20;;;;;;;31.13;22.53;;;3.70;99.90;;;;;;5008395;28;20335;-72
2021/05/01 02:13:47;;;;;;;30.60;23.43;;;3.60;99.90;;;;;;5014766;28;20255;-72
2021/05/01 02:16:14;;;;;;;31.40;23.57;;;3.60;99.90;;;;;;5013662;28;20289;-72
2021/05/01 02:18:40;;;;;;;29.93;22.90;;;3.60;99.90;;;;;;5013456;28;20238;-72
2021/05/01 02:21:07;;;;;;;30.27;23.07;;;3.60;99.90;;;;;;5013148;28;20318;-72
2021/05/01 02:23:33;;;;;;;28.03;22.17;;;3.60;99.90;;;;;;5013212;28;20214;-72
2021/05/01 02:25:59;;;;;;;29.90;22.83;;;3.50;99.90;;;;;;5013476;28;20274;-72
2021/05/01 02:28:26;;;;;;;30.53;22.93;;;3.50;99.90;;;;;;5013676;28;20573;-72
2021/05/01 02:30:53;;;;;;;30.10;22.87;;;3.50;99.90;;;;;;5013062;28;20235;-71
2021/05/01 02:33:19;;;;;;;32.10;23.87;;;3.40;99.90;;;;;;5014380;28;20649;-72
2021/05/01 02:35:46;;;;;;;30.70;22.47;;;3.30;99.90;;;;;;5012149;28;20296;-72
2021/05/01 02:38:12;;;;;;;29.73;23.33;;;3.30;99.90;;;;;;5012626;28;20295;-72
2021/05/01 02:40:39;;;;;;;30.63;22.73;;;3.20;99.90;;;;;;5013141;28;20370;-72
2021/05/01 02:43:07;;;;;;;33.10;24.13;;;3.20;99.90;;;;;;5027388;28;20307;-71
2021/05/01 02:45:34;;;;;;;30.73;22.87;;;3.10;99.90;;;;;;5029434;28;20658;-71
2021/05/01 02:48:03;;;;;;;31.33;23.73;;;3.20;99.90;;;;;;5013053;28;20294;-72
2021/05/01 02:50:29;;;;;;;32.33;23.67;;;3.10;99.90;;;;;;5012982;28;20195;-72
2021/05/01 02:52:56;;;;;;;29.90;22.47;;;3.20;99.90;;;;;;5012845;28;20218;-71
2021/05/01 02:55:23;;;;;;;32.00;23.57;;;3.20;99.90;;;;;;5025242;28;20205;-71
2021/05/01 02:57:49;;;;;;;29.27;22.80;;;3.20;99.90;;;;;;5013401;28;20303;-72
2021/05/01 03:00:19;;;;;;;29.47;22.03;;;3.10;99.90;;;;;;5012212;28;20774;-71
2021/05/01 03:02:45;;;;;;;29.23;22.53;;;3.10;99.90;;;;;;5019918;28;20251;-71
2021/05/01 03:05:15;;;;;;;31.33;23.07;;;3.10;99.90;;;;;;5020490;28;20287;-71
2021/05/01 03:07:42;;;;;;;30.20;22.57;;;3.10;99.90;;;;;;5012668;28;20199;-71
2021/05/01 03:10:11;;;;;;;29.93;21.07;;;3.10;99.90;;;;;;5012638;28;20453;-71
2021/05/01 03:12:38;;;;;;;27.07;21.67;;;3.10;99.90;;;;;;5012605;28;20257;-71
2021/05/01 03:15:06;;;;;;;30.77;21.90;;;2.90;99.90;;;;;;5012822;28;20337;-71
2021/05/01 03:17:32;;;;;;;28.37;22.47;;;2.90;99.90;;;;;;5011661;28;20776;-71
2021/05/01 03:19:59;;;;;;;28.30;22.53;;;2.80;99.90;;;;;;5019467;28;20375;-72
2021/05/01 03:22:26;;;;;;;29.07;22.20;;;2.80;99.90;;;;;;5031425;28;20645;-71
2021/05/01 03:24:53;;;;;;;33.03;22.27;;;2.80;99.90;;;;;;5024389;28;20312;-72
2021/05/01 03:27:20;;;;;;;29.80;22.57;;;2.70;99.90;;;;;;5030378;28;20253;-72
2021/05/01 03:29:46;;;;;;;28.97;22.43;;;2.70;99.90;;;;;;5012568;28;20306;-72
2021/05/01 03:32:13;;;;;;;30.20;22.07;;;2.60;99.90;;;;;;5029845;28;20281;-72
2021/05/01 03:34:39;;;;;;;27.60;21.67;;;2.60;99.90;;;;;;5031854;28;20201;-71
2021/05/01 03:37:05;;;;;;;28.83;21.50;;;2.60;99.90;;;;;;5021335;28;20207;-72
2021/05/01 03:39:33;;;;;;;31.07;22.77;;;2.60;99.90;;;;;;5012182;28;20247;-73
2021/05/01 03:42:00;;;;;;;31.33;22.07;;;2.50;99.90;;;;;;5012425;28;20312;-73
2021/05/01 03:44:26;;;;;;;31.13;22.20;;;2.50;99.90;;;;;;5011804;28;20231;-73
2021/05/01 03:46:53;;;;;;;29.33;22.17;;;2.60;99.90;;;;;;5011794;28;20204;-73
2021/05/01 03:49:19;;;;;;;30.10;22.67;;;2.60;99.90;;;;;;5011904;28;20366;-73
2021/05/01 03:51:46;;;;;;;30.30;22.47;;;2.50;99.90;;;;;;5011879;28;20284;-71
2021/05/01 03:54:12;;;;;;;30.87;21.73;;;2.30;99.90;;;;;;5011874;28;20198;-73
2021/05/01 03:56:39;;;;;;;31.20;22.47;;;2.30;99.90;;;;;;5019206;28;20297;-71
2021/05/01 03:59:06;;;;;;;30.63;21.90;;;2.20;99.90;;;;;;5013738;28;20665;-71
2021/05/01 04:01:32;;;;;;;31.13;22.80;;;2.20;99.90;;;;;;5031185;28;20337;-71
2021/05/01 04:03:58;;;;;;;29.47;22.60;;;2.20;99.90;;;;;;5031105;28;20229;-71
2021/05/01 04:06:25;;;;;;;28.43;21.90;;;2.20;99.90;;;;;;5009625;28;20301;-71
2021/05/01 04:08:51;;;;;;;31.97;23.30;;;2.20;99.90;;;;;;5016671;28;20685;-71
2021/05/01 04:11:17;;;;;;;29.13;22.27;;;2.20;99.90;;;;;;5031387;28;20289;-71
2021/05/01 04:13:47;;;;;;;30.80;22.53;;;2.10;99.90;;;;;;5011332;28;20299;-71
2021/05/01 04:16:13;;;;;;;30.23;22.60;;;2.10;99.90;;;;;;4992460;28;20209;-71
2021/05/01 04:18:40;;;;;;;29.33;21.53;;;2.10;99.90;;;;;;4991666;28;20614;-71
2021/05/01 04:21:07;;;;;;;31.60;22.43;;;2.10;99.90;;;;;;5004385;28;20230;-72
2021/05/01 04:23:34;;;;;;;29.37;21.63;;;2.10;99.90;;;;;;5011624;28;20680;-71
2021/05/01 04:26:01;;;;;;;28.37;21.43;;;2.10;99.90;;;;;;5015564;28;20726;-71
2021/05/01 04:28:27;;;;;;;27.37;21.17;;;2.20;99.90;;;;;;5011708;28;20297;-71
2021/05/01 04:30:55;;;;;;;29.87;21.73;;;2.10;99.90;;;;;;5028681;28;20659;-71
2021/05/01 04:33:21;;;;;;;27.33;20.67;;;2.20;99.90;;;;;;5031341;28;20307;-71
2021/05/01 04:35:48;;;;;;;27.03;20.60;;;2.10;99.90;;;;;;5030472;28;20913;-71
2021/05/01 04:38:15;;;;;;;29.87;21.23;;;2.00;99.90;;;;;;5019544;28;20777;-71
2021/05/01 04:40:41;;;;;;;27.67;20.93;;;2.00;99.90;;;;;;5011174;28;20308;-71
2021/05/01 04:43:10;;;;;;;31.47;22.13;;;2.10;99.90;;;;;;5011503;28;20295;-71
2021/05/01 04:45:37;;;;;;;31.73;22.87;;;2.10;99.90;;;;;;5011572;28;20527;-71
2021/05/01 04:48:06;;;;;;;28.53;21.07;;;2.10;99.90;;;;;;5011090;28;20718;-71
2021/05/01 04:50:32;;;;;;;30.83;20.67;;;2.20;99.90;;;;;;5011215;28;20284;-73
2021/05/01 04:52:59;;;;;;;30.37;21.43;;;2.20;99.90;;;;;;5026206;28;20297;-71
2021/05/01 04:55:26;;;;;;;31.50;21.43;;;2.20;99.90;;;;;;5031199;28;20233;-73
2021/05/01 04:57:53;;;;;;;28.13;21.43;;;2.20;99.90;;;;;;5020394;28;20205;-73
2021/05/01 05:00:21;;;;;;;29.67;21.30;;;2.20;99.90;;;;;;5015707;28;20296;-71
2021/05/01 05:02:49;;;;;;;29.63;21.97;;;2.20;99.90;;;;;;5014509;28;20290;-71
2021/05/01 05:05:18;;;;;;;30.00;21.60;;;2.30;99.90;;;;;;5015248;28;20206;-72
2021/05/01 05:07:45;;;;;;;32.03;22.20;;;2.30;99.90;;;;;;5015301;28;20288;-71
2021/05/01 05:10:13;;;;;;;31.03;21.70;;;2.30;99.90;;;;;;5014663;28;20697;-71
2021/05/01 05:12:41;;;;;;;32.53;22.57;;;2.30;99.90;;;;;;5020687;28;20308;-72
2021/05/01 05:15:08;;;;;;;34.10;22.23;;;2.40;99.90;;;;;;5034110;28;20295;-71
2021/05/01 05:17:35;;;;;;;30.40;21.43;;;2.40;99.90;;;;;;5034652;28;20755;-71
2021/05/01 05:20:03;;;;;;;31.67;22.30;;;2.40;99.90;;;;;;5016988;28;20292;-71
2021/05/01 05:22:30;;;;;;;29.53;21.70;;;2.50;99.90;;;;;;5023608;28;20345;-71
2021/05/01 05:24:56;;;;;;;30.67;22.17;;;2.50;99.90;;;;;;5034447;28;20806;-71
2021/05/01 05:27:23;;;;;;;29.10;22.03;;;2.60;99.90;;;;;;5034327;28;20288;-71
2021/05/01 05:29:50;;;;;;;30.57;22.30;;;2.80;99.90;;;;;;5034328;28;20682;-71
2021/05/01 05:32:18;;;;;;;31.83;23.67;;;3.10;99.90;;;;;;5029080;28;20202;-71
2021/05/01 05:34:44;;;;;;;29.40;21.43;;;3.30;99.90;;;;;;5014735;28;20303;-72
2021/05/01 05:37:11;;;;;;;27.63;21.87;;;3.60;99.90;;;;;;5014056;28;20288;-72
2021/05/01 05:39:38;;;;;;;27.60;20.17;;;3.90;99.90;;;;;;5019818;28;20573;-71
2021/05/01 05:42:06;;;;;;;27.40;19.13;;;4.10;99.90;;;;;;5034089;28;20234;-72
2021/05/01 05:44:33;;;;;;;24.53;19.20;;;4.30;99.90;;;;;;5034256;28;20208;-72
2021/05/01 05:47:00;;;;;;;23.90;18.77;;;4.60;99.90;;;;;;5034035;28;20287;-71
2021/05/01 05:49:26;;;;;;;24.00;18.50;;;4.90;99.90;;;;;;5034059;28;20314;-71
2021/05/01 05:51:53;;;;;;;21.63;18.63;;;5.40;99.90;;;;;;5034246;28;20200;-72
2021/05/01 05:54:19;;;;;;;25.20;19.27;;;5.70;99.90;;;;;;5016246;28;20266;-72
2021/05/01 05:56:47;;;;;;;19.43;17.23;;;6.10;99.90;;;;;;5026905;28;20279;-72
2021/05/01 05:59:14;;;;;;;20.40;17.90;;;6.50;99.90;;;;;;5013914;28;20293;-71
2021/05/01 06:01:45;;;;;;;19.73;16.77;;;7.10;99.90;;;;;;5014291;28;20237;-71
2021/05/01 06:04:24;;;;;;;19.50;16.77;;;7.30;99.90;;;;;;5004633;28;20680;-72
2021/05/01 06:06:58;;;;;;;21.63;16.30;;;8.00;99.90;;;;;;5014148;28;20704;-72
2021/05/01 06:09:25;;;;;;;17.83;15.97;;;8.30;99.90;;;;;;5025983;28;20204;-72
2021/05/01 06:11:53;;;;;;;17.10;15.23;;;8.60;99.90;;;;;;5033922;28;20599;-72
2021/05/01 06:14:20;;;;;;;19.33;16.13;;;9.20;99.90;;;;;;5033852;28;20230;-71
2021/05/01 06:16:47;;;;;;;17.33;15.47;;;9.70;99.90;;;;;;5033384;28;20291;-72
2021/05/01 06:19:14;;;;;;;18.97;15.40;;;10.10;99.90;;;;;;5032203;28;20239;-72
2021/05/01 06:21:40;;;;;;;18.03;15.53;;;10.40;99.90;;;;;;5022370;28;20724;-72
2021/05/01 06:24:08;;;;;;;17.70;14.47;;;10.60;99.90;;;;;;5028770;28;20201;-72
2021/05/01 06:26:37;;;;;;;15.67;13.97;;;10.90;99.90;;;;;;5013680;28;20240;-72
2021/05/01 06:29:06;;;;;;;15.90;13.80;;;10.70;99.90;;;;;;5013877;28;20609;-72
2021/05/01 06:31:37;;;;;;;14.83;13.27;;;11.10;99.90;;;;;;5026536;28;20204;-72
2021/05/01 06:34:04;;;;;;;16.30;14.60;;;11.40;99.90;;;;;;5021557;28;20208;-72
2021/05/01 06:36:32;;;;;;;15.27;13.77;;;11.60;99.90;;;;;;5023336;28;20724;-72
2021/05/01 06:39:02;;;;;;;14.50;13.00;;;11.80;99.90;;;;;;5013367;28;20284;-72
2021/05/01 06:41:39;;;;;;;14.10;12.27;;;12.20;99.90;;;;;;5012734;28;20240;-72
2021/05/01 06:44:10;;;;;;;14.60;13.10;;;12.20;99.90;;;;;;5013471;28;20209;-72
2021/05/01 06:46:39;;;;;;;14.20;12.80;;;12.70;99.90;;;;;;5017372;28;20208;-72
2021/05/01 06:49:11;;;;;;;13.53;12.17;;;12.40;99.90;;;;;;5012930;28;20217;-72
2021/05/01 06:51:39;;;;;;;14.30;12.03;;;12.30;99.90;;;;;;5013014;28;20275;-72
2021/05/01 06:54:08;;;;;;;14.43;11.87;;;13.30;99.90;;;;;;5013110;28;20292;-72
2021/05/01 06:56:38;;;;;;;13.07;11.87;;;13.60;99.90;;;;;;5012177;28;20213;-72
2021/05/01 06:59:07;;;;;;;13.40;12.10;;;14.10;99.90;;;;;;5012741;28;20197;-72
2021/05/01 07:01:35;;;;;;;13.13;11.73;;;14.20;99.90;;;;;;5012789;28;20224;-72
2021/05/01 07:04:02;;;;;;;12.50;11.30;;;13.70;99.90;;;;;;5012807;28;20612;-73
2021/05/01 07:06:29;;;;;;;12.93;11.73;;;14.30;99.90;;;;;;5012940;28;20292;-72
2021/05/01 07:08:59;;;;;;;14.87;12.30;;;14.30;99.90;;;;;;5012873;28;20225;-72
2021/05/01 07:11:25;;;;;;;13.65;12.35;;;14.20;99.90;;;;;;5012866;28;20693;-72
2021/05/01 07:13:52;;;;;;;12.93;11.73;;;14.30;99.90;;;;;;5012356;28;20221;-72
2021/05/01 07:16:20;;;;;;;13.27;11.98;;;15.10;99.90;;;;;;5012485;28;20209;-73
2021/05/01 07:18:47;;;;;;;13.35;12.05;;;15.40;99.90;;;;;;5014322;28;20312;-72
2021/05/01 07:21:14;;;;;;;11.95;10.70;;;15.10;99.90;;;;;;5014032;28;20335;-72
2021/05/01 07:23:41;;;;;;;12.60;11.45;;;14.40;99.90;;;;;;5012474;28;20219;-72
2021/05/01 07:26:10;;;;;;;12.13;10.93;;;14.60;99.90;;;;;;5011243;28;20280;-73
2021/05/01 07:28:38;;;;;;;12.75;11.65;;;14.70;99.90;;;;;;5013594;28;20562;-71
2021/05/01 07:31:08;;;;;;;12.45;11.35;;;14.90;99.90;;;;;;5011210;28;20236;-72
2021/05/01 07:33:43;;;;;;;13.27;11.98;;;14.70;99.90;;;;;;5009096;28;20665;-72
2021/05/01 07:36:12;;;;;;;16.30;11.80;;;14.60;99.90;;;;;;5008546;28;20286;-72
2021/05/01 07:38:43;;;;;;;12.20;11.10;;;15.10;99.90;;;;;;5012520;28;20197;-72
2021/05/01 07:41:12;;;;;;;12.98;11.60;;;15.70;99.90;;;;;;5011977;28;20260;-72
2021/05/01 07:43:41;;;;;;;12.48;11.15;;;15.50;99.90;;;;;;5011886;28;20212;-72
2021/05/01 07:46:10;;;;;;;11.65;10.57;;;15.50;99.90;;;;;;5016222;28;20706;-72
2021/05/01 07:48:40;;;;;;;11.73;10.45;;;15.60;99.90;;;;;;5014950;28;20236;-72
2021/05/01 07:51:07;;;;;;;10.75;9.70;;;15.20;99.90;;;;;;5011624;28;20788;-72
2021/05/01 07:53:33;;;;;;;11.65;10.45;;;14.90;99.90;;;;;;5013719;28;20232;-72
2021/05/01 07:56:00;;;;;;;11.23;10.13;;;15.40;99.90;;;;;;5011593;28;20247;-72
2021/05/01 07:58:27;;;;;;;10.52;9.63;;;15.00;99.90;;;;;;5012343;28;20205;-72
2021/05/01 08:00:54;;;;;;;11.13;10.02;;;16.00;99.90;;;;;;5011937;28;20375;-73
2021/05/01 08:03:21;;;;;;;11.98;10.77;;;16.00;99.90;;;;;;5010708;28;20209;-72
2021/05/01 08:05:49;;;;;;;11.55;10.40;;;15.80;99.90;;;;;;5011603;28;20201;-72
2021/05/01 08:08:15;;;;;;;11.50;10.30;;;16.00;99.90;;;;;;5021444;28;20760;-72
2021/05/01 08:10:42;;;;;;;11.68;10.18;;;15.50;99.90;;;;;;5016894;28;20237;-71
2021/05/01 08:13:08;;;;;;;11.75;10.57;;;15.90;99.90;;;;;;5008364;28;20228;-72
2021/05/01 08:15:35;;;;;;;11.60;10.50;;;15.20;99.90;;;;;;4975547;28;20236;-71
2021/05/01 08:18:03;;;;;;;11.40;10.40;;;16.70;99.90;;;;;;4991862;28;20349;-71
2021/05/01 08:20:29;;;;;;;12.82;11.52;;;17.20;99.90;;;;;;5006173;28;20287;-72
2021/05/01 08:22:57;;;;;;;11.73;10.52;;;16.30;99.90;;;;;;5012074;28;20291;-72
2021/05/01 08:25:24;;;;;;;12.38;10.57;;;15.90;99.90;;;;;;5023264;28;20297;-72
2021/05/01 08:27:50;;;;;;;11.45;10.38;;;16.00;99.90;;;;;;5031428;28;20287;-71
2021/05/01 08:30:17;;;;;;;12.40;11.10;;;17.10;99.90;;;;;;5031241;28;20235;-72
2021/05/01 08:32:45;;;;;;;11.77;10.52;;;16.20;99.90;;;;;;5031493;28;20196;-72
2021/05/01 08:35:11;;;;;;;12.52;11.25;;;16.90;99.90;;;;;;5028796;28;20669;-72
2021/05/01 08:37:38;;;;;;;11.52;10.32;;;16.20;99.90;;;;;;5014828;28;20691;-72
2021/05/01 08:40:07;;;;;;;11.93;10.80;;;16.30;99.90;;;;;;5015264;28;20284;-72
2021/05/01 08:42:34;;;;;;;12.52;11.23;;;17.80;99.90;;;;;;5015891;28;20313;-72
2021/05/01 08:45:06;;;;;;;11.45;10.32;;;18.40;99.90;;;;;;5015983;28;20202;-72
2021/05/01 08:47:34;;;;;;;11.30;10.20;;;19.00;99.90;;;;;;5017774;28;20225;-72
2021/05/01 08:50:05;;;;;;;11.38;10.05;;;18.60;99.90;;;;;;5020636;28;20249;-72
2021/05/01 08:52:32;;;;;;;11.75;10.65;;;18.30;99.90;;;;;;5011419;28;20767;-72
2021/05/01 08:54:59;;;;;;;11.02;10.02;;;18.30;99.90;;;;;;5000568;28;20243;-72
2021/05/01 08:57:28;;;;;;;10.52;9.45;;;18.60;99.90;;;;;;5000766;28;20206;-72
2021/05/01 08:59:55;;;;;;;10.40;9.50;;;19.50;99.90;;;;;;5012701;28;20753;-73
2021/05/01 09:02:26;;;;;;;10.52;9.48;;;18.50;98.70;;;;;;4989715;28;20327;-72
2021/05/01 09:04:53;;;;;;;11.43;9.73;;;18.90;98.80;;;;;;5013939;28;20247;-72
2021/05/01 09:07:20;;;;;;;9.60;8.80;;;18.40;97.50;;;;;;5029469;28;20254;-72
2021/05/01 09:09:53;;;;;;;11.07;9.93;;;18.70;96.60;;;;;;5017103;28;20287;-72
2021/05/01 09:12:37;;;;;;;10.10;8.98;;;17.90;99.70;;;;;;5030759;28;20304;-72
2021/05/01 09:15:05;;;;;;;10.32;9.32;;;18.50;96.60;;;;;;5013997;28;20251;-73
2021/05/01 09:17:32;;;;;;;10.73;9.63;;;17.50;97.60;;;;;;5015045;28;20237;-72
2021/05/01 09:20:04;;;;;;;10.57;9.57;;;17.40;99.00;;;;;;5014680;28;20568;-72
2021/05/01 09:22:30;;;;;;;10.30;9.02;;;18.60;97.90;;;;;;5030321;28;20307;-73
2021/05/01 09:25:06;;;;;;;10.15;9.25;;;20.20;97.10;;;;;;5014207;28;20288;-72
2021/05/01 09:27:32;;;;;;;11.45;9.95;;;20.30;95.00;;;;;;5014110;28;20554;-72
2021/05/01 09:30:13;;;;;;;10.63;9.52;;;20.40;94.80;;;;;;5015297;28;20242;-73
2021/05/01 09:32:40;;;;;;;10.93;9.75;;;20.20;94.20;;;;;;5019969;28;20219;-73
2021/05/01 09:35:07;;;;;;;10.88;9.82;;;19.00;95.60;;;;;;5030468;28;20232;-72
2021/05/01 09:37:35;;;;;;;10.32;9.38;;;20.40;95.50;;;;;;4994768;28;20297;-73
2021/05/01 09:40:01;;;;;;;10.27;9.18;;;19.20;93.90;;;;;;4993516;28;20740;-73
2021/05/01 09:42:30;;;;;;;9.30;8.40;;;18.40;95.10;;;;;;4996611;28;20241;-72
2021/05/01 09:45:10;;;;;;;10.02;9.02;;;19.80;96.20;;;;;;5019588;28;20283;-73
2021/05/01 09:47:37;;;;;;;10.80;9.68;;;20.70;92.70;;;;;;5021119;28;20211;-72
2021/05/01 09:50:19;;;;;;;9.48;8.63;;;19.80;91.70;;;;;;5014472;28;20283;-72
2021/05/01 09:52:59;;;;;;;10.02;9.10;;;17.20;95.50;;;;;;5032051;28;20254;-72
2021/05/01 09:55:46;;;;;;;10.65;9.55;;;16.40;96.70;;;;;;5018119;28;20205;-72
2021/05/01 09:58:18;;;;;;;11.50;10.27;;;17.50;98.20;;;;;;5001194;28;20659;-72
2021/05/01 10:00:46;;;;;;;10.25;9.20;;;17.80;95.50;;;;;;5027724;28;20279;-71
2021/05/01 10:03:24;;;;;;;10.77;9.55;;;17.20;96.70;;;;;;5034136;28;20301;-72
2021/05/01 10:05:53;;;;;;;10.13;9.13;;;17.00;95.60;;;;;;5022144;28;20316;-72
2021/05/01 10:08:22;;;;;;;9.75;8.70;;;16.30;98.90;;;;;;5024017;28;20204;-75
2021/05/01 10:10:52;;;;;;;9.77;8.85;;;16.70;98.60;;;;;;5013231;28;20308;-75
2021/05/01 10:13:19;;;;;;;10.30;9.15;;;18.00;98.50;;;;;;5012734;28;20304;-74
2021/05/01 10:15:45;;;;;;;10.48;9.45;;;18.50;94.30;;;;;;5027450;28;20605;-75
2021/05/01 10:18:14;;;;;;;10.68;9.68;;;18.60;94.90;;;;;;5015443;28;20235;-75
2021/05/01 10:20:46;;;;;;;10.27;9.38;;;18.70;92.90;;;;;;5021064;28;20207;-76
2021/05/01 10:23:14;;;;;;;9.98;9.02;;;19.40;96.30;;;;;;5012853;28;20636;-76
2021/05/01 10:25:42;;;;;;;10.27;9.38;;;18.70;93.60;;;;;;5014583;28;20197;-75
2021/05/01 10:28:13;;;;;;;10.60;9.50;;;15.80;94.80;;;;;;5015660;28;20233;-75
2021/05/01 10:30:42;;;;;;;10.23;9.00;;;14.60;99.70;;;;;;5024499;28;20620;-76
2021/05/01 10:33:14;;;;;;;10.57;9.40;;;17.20;97.80;;;;;;5020027;28;20232;-76
2021/05/01 10:35:49;;;;;;;9.10;8.30;;;19.40;90.40;;;;;;5017344;28;20212;-76
2021/05/01 10:38:19;;;;;;;8.75;7.78;;;19.60;90.10;;;;;;5017434;28;20676;-76
2021/05/01 10:40:48;;;;;;;8.27;7.53;;;19.00;86.10;;;;;;5018444;28;20196;-76
2021/05/01 10:43:17;;;;;;;8.55;7.75;;;19.70;86.70;;;;;;5013965;28;20284;-76
2021/05/01 10:45:55;;;;;;;9.13;8.25;;;18.70;89.30;;;;;;5019402;28;20288;-76
2021/05/01 10:48:23;;;;;;;9.02;8.13;;;17.10;90.10;;;;;;5023129;28;20326;-76
2021/05/01 10:51:06;;;;;;;8.93;8.07;;;15.90;91.50;;;;;;5013505;28;20201;-76
2021/05/01 10:53:33;;;;;;;9.30;8.07;;;17.70;90.30;;;;;;5014512;28;20236;-76
2021/05/01 10:56:00;;;;;;;10.15;9.15;;;19.90;89.90;;;;;;5015534;28;20304;-75
2021/05/01 10:58:36;;;;;;;8.25;7.55;;;19.30;83.90;;;;;;5013431;28;20223;-75
2021/05/01 11:01:04;;;;;;;6.85;6.18;;;21.60;86.60;;;;;;5025905;28;20690;-76
2021/05/01 11:03:31;;;;;;;7.60;6.90;;;22.10;72.90;;;;;;5019496;28;20291;-75
2021/05/01 11:06:00;;;;;;;8.50;7.57;;;20.00;76.10;;;;;;5025215;28;20280;-75
2021/05/01 11:08:41;;;;;;;9.25;8.25;;;18.00;83.40;;;;;;5024572;28;20205;-74
2021/05/01 11:11:12;;;;;;;8.95;8.05;;;17.30;90.60;;;;;;5022274;28;20200;-75
2021/05/01 11:13:42;;;;;;;8.82;7.90;;;19.60;86.30;;;;;;5024787;28;20303;-74
2021/05/01 11:16:10;;;;;;;9.70;8.80;;;18.10;87.20;;;;;;5017030;28;20681;-74
2021/05/01 11:18:39;;;;;;;8.98;8.07;;;16.70;88.50;;;;;;5016943;28;20236;-74
2021/05/01 11:21:09;;;;;;;8.68;7.15;;;18.30;91.40;;;;;;5025734;28;20221;-74
2021/05/01 11:23:37;;;;;;;8.70;7.80;;;20.10;90.30;;;;;;5024140;28;20288;-74
2021/05/01 11:26:07;;;;;;;7.13;6.43;;;21.40;78.80;;;;;;5019728;28;20708;-75
2021/05/01 11:28:37;;;;;;;7.70;6.28;;;22.90;79.30;;;;;;5020830;28;20688;-75
2021/05/01 11:31:04;;;;;;;8.90;8.00;;;23.60;72.60;;;;;;5020929;28;20554;-75
2021/05/01 11:33:32;;;;;;;8.68;7.88;;;22.10;68.60;;;;;;5020671;28;20204;-75
2021/05/01 11:35:59;;;;;;;8.43;7.55;;;20.80;74.00;;;;;;5004382;28;20641;-75
2021/05/01 11:38:28;;;;;;;9.38;8.43;;;20.40;78.30;;;;;;5022322;28;20677;-74
2021/05/01 11:40:57;;;;;;;9.27;8.48;;;18.90;82.90;;;;;;5020375;28;20280;-74
2021/05/01 11:43:29;;;;;;;8.95;8.15;;;17.60;85.10;;;;;;5000022;28;20328;-74
2021/05/01 11:46:10;;;;;;;7.70;7.00;;;17.10;84.90;;;;;;5013180;28;20335;-74
2021/05/01 11:48:44;;;;;;;8.20;7.40;;;16.50;82.40;;;;;;5014676;28;20204;-74
2021/05/01 11:51:17;;;;;;;8.25;7.40;;;18.10;82.90;;;;;;5012038;28;20280;-75
2021/05/01 11:53:46;;;;;;;10.15;8.70;;;20.30;81.20;;;;;;5021177;28;20227;-75
2021/05/01 11:56:27;;;;;;;8.65;7.93;;;20.20;72.80;;;;;;5013156;28;20216;-74
2021/05/01 11:59:08;;;;;;;8.73;7.93;;;20.40;71.30;;;;;;5010645;28;20288;-75
2021/05/01 12:01:41;;;;;;;8.50;7.70;;;18.90;74.50;;;;;;5015124;28;20311;-75
2021/05/01 12:04:09;;;;;;;8.90;8.05;;;16.90;82.30;;;;;;5020758;28;20282;-76
2021/05/01 12:06:39;;;;;;;8.60;7.70;;;16.20;86.10;;;;;;5017995;28;20648;-77
2021/05/01 12:09:09;;;;;;;8.37;7.43;;;16.00;87.00;;;;;;5018153;28;20204;-77
2021/05/01 12:11:37;;;;;;;8.33;7.27;;;15.60;86.20;;;;;;5008196;28;20227;-76
2021/05/01 12:14:09;;;;;;;8.87;6.83;;;15.80;88.10;;;;;;5012379;28;21702;-75
2021/05/01 12:16:37;;;;;;;7.17;6.47;;;17.60;87.90;;;;;;5018800;28;20284;-75
2021/05/01 12:19:04;;;;;;;7.50;6.50;;;21.00;82.80;;;;;;5016441;28;20593;-76
2021/05/01 12:21:32;;;;;;;6.88;5.88;;;20.90;73.70;;;;;;5019487;28;20221;-75
2021/05/01 12:23:59;;;;;;;5.97;5.47;;;19.20;72.60;;;;;;5017988;28;20197;-77
2021/05/01 12:26:40;;;;;;;5.93;5.17;;;17.50;80.30;;;;;;5014018;28;20229;-76
2021/05/01 12:29:28;;;;;;;5.60;5.10;;;16.50;81.30;;;;;;5011330;28;20295;-75
2021/05/01 12:31:56;;;;;;;5.80;5.10;;;16.70;83.70;;;;;;5011149;28;20206;-77
2021/05/01 12:34:43;;;;;;;5.72;5.22;;;18.90;81.70;;;;;;4996985;28;20209;-77
2021/05/01 12:37:11;;;;;;;6.13;5.53;;;20.70;73.80;;;;;;5009984;28;20201;-77
2021/05/01 12:39:38;;;;;;;8.25;5.28;;;22.50;71.70;;;;;;5014014;28;20302;-77
2021/05/01 12:42:19;;;;;;;5.78;5.20;;;19.70;70.80;;;;;;5019241;28;20248;-76